createdAt,value
2022-11-10T00:02:12.224Z,6.68
2022-11-10T00:05:01.838Z,6.55
2022-11-10T00:07:54.031Z,6.30
2022-11-10T00:10:56.687Z,6.38
2022-11-10T00:13:58.273Z,6.20
2022-11-10T00:17:01.247Z,5.90
2022-11-10T00:19:51.299Z,6.30
2022-11-10T00:22:42.091Z,6.68
2022-11-10T00:25:35.459Z,6.47
2022-11-10T00:28:24.915Z,6.50
2022-11-10T00:31:14.715Z,7.07
2022-11-10T00:34:03.867Z,6.88
2022-11-10T00:36:53.690Z,5.57
2022-11-10T00:39:43.045Z,6.15
2022-11-10T00:42:35.738Z,5.88
2022-11-10T00:45:25.599Z,7.20
2022-11-10T00:48:15.075Z,6.20
2022-11-10T00:51:04.957Z,6.97
2022-11-10T00:53:54.726Z,6.72
2022-11-10T00:56:43.984Z,6.47
2022-11-10T00:59:36.392Z,7.28
2022-11-10T01:02:25.486Z,7.07
2022-11-10T01:05:14.667Z,6.65
2022-11-10T01:08:04.395Z,7.90
2022-11-10T01:10:53.901Z,7.18
2022-11-10T01:13:43.602Z,5.95
2022-11-10T01:16:35.943Z,5.13
2022-11-10T01:19:25.289Z,5.22
2022-11-10T01:22:15.105Z,5.20
2022-11-10T01:25:04.704Z,5.50
2022-11-10T01:27:54.649Z,4.85
2022-11-10T01:30:44.272Z,4.32
2022-11-10T01:33:36.575Z,5.70
2022-11-10T01:36:26.365Z,5.10
2022-11-10T01:39:15.619Z,5.65
2022-11-10T01:42:05.212Z,4.65
2022-11-10T01:45:39.317Z,4.55
2022-11-10T01:48:38.135Z,4.20
2022-11-10T01:51:30.383Z,4.72
2022-11-10T01:54:25.348Z,3.75
2022-11-10T01:57:17.173Z,3.53
2022-11-10T02:00:08.359Z,3.97
2022-11-10T02:03:04.070Z,4.13
2022-11-10T02:05:56.982Z,5.40
2022-11-10T02:08:47.814Z,4.75
2022-11-10T02:11:38.633Z,5.03
2022-11-10T02:14:28.759Z,4.90
2022-11-10T02:17:18.590Z,4.93
2022-11-10T02:20:12.482Z,5.47
2022-11-10T02:23:15.352Z,5.03
2022-11-10T02:26:06.588Z,5.40
2022-11-10T02:28:56.002Z,4.65
2022-11-10T02:31:45.940Z,4.68
2022-11-10T02:34:35.226Z,4.18
2022-11-10T02:37:24.724Z,3.95
2022-11-10T02:40:17.124Z,3.20
2022-11-10T02:43:07.542Z,3.60
2022-11-10T02:45:57.266Z,3.38
2022-11-10T02:48:46.708Z,3.65
2022-11-10T02:51:35.995Z,4.50
2022-11-10T02:54:25.556Z,3.85
2022-11-10T02:57:17.649Z,4.57
2022-11-10T03:00:07.866Z,4.88
2022-11-10T03:03:01.525Z,5.28
2022-11-10T03:05:50.789Z,5.55
2022-11-10T03:08:40.388Z,5.15
2022-11-10T03:11:32.406Z,5.38
2022-11-10T03:14:24.470Z,4.70
2022-11-10T03:17:14.402Z,4.18
2022-11-10T03:20:05.602Z,4.72
2022-11-10T03:22:55.324Z,4.15
2022-11-10T03:25:46.620Z,3.50
2022-11-10T03:28:35.941Z,3.45
2022-11-10T03:31:28.297Z,3.45
2022-11-10T03:34:17.901Z,3.38
2022-11-10T03:37:07.458Z,3.45
2022-11-10T03:39:56.749Z,3.35
2022-11-10T03:42:47.020Z,3.10
2022-11-10T03:45:36.458Z,3.13
2022-11-10T03:48:29.027Z,2.47
2022-11-10T03:51:18.755Z,2.75
2022-11-10T03:54:09.195Z,2.53
2022-11-10T03:56:58.643Z,2.60
2022-11-10T03:59:48.303Z,2.67
2022-11-10T04:02:37.893Z,3.53
2022-11-10T04:05:42.123Z,2.63
2022-11-10T04:08:43.811Z,2.38
2022-11-10T04:11:46.516Z,2.83
2022-11-10T04:14:48.135Z,2.83
2022-11-10T04:17:37.961Z,2.80
2022-11-10T04:20:30.291Z,4.20
2022-11-10T04:23:35.369Z,3.28
2022-11-10T04:26:33.941Z,2.72
2022-11-10T04:29:24.023Z,3.22
2022-11-10T04:32:13.798Z,3.40
2022-11-10T04:35:03.663Z,3.92
2022-11-10T04:37:55.706Z,4.28
2022-11-10T04:40:45.259Z,4.63
2022-11-10T04:43:35.159Z,5.20
2022-11-10T04:46:27.477Z,4.40
2022-11-10T04:49:17.535Z,3.90
2022-11-10T04:52:06.914Z,3.22
2022-11-10T04:54:58.930Z,4.55
2022-11-10T04:57:48.199Z,3.80
2022-11-10T05:00:38.071Z,4.28
2022-11-10T05:03:27.601Z,4.47
2022-11-10T05:06:18.579Z,4.65
2022-11-10T05:09:08.019Z,3.95
2022-11-10T05:12:00.446Z,4.35
2022-11-10T05:14:50.164Z,4.18
2022-11-10T05:17:39.419Z,4.82
2022-11-10T05:20:29.734Z,4.70
2022-11-10T05:23:31.172Z,4.07
2022-11-10T05:26:22.158Z,4.32
2022-11-10T05:29:14.407Z,4.30
2022-11-10T05:32:04.097Z,3.45
2022-11-10T05:34:53.707Z,4.05
2022-11-10T05:37:44.078Z,4.50
2022-11-10T05:40:33.630Z,4.55
2022-11-10T05:43:23.270Z,3.92
2022-11-10T05:46:15.931Z,3.35
2022-11-10T05:49:05.970Z,3.90
2022-11-10T05:51:55.575Z,4.30
2022-11-10T05:54:45.620Z,4.03
2022-11-10T05:57:35.467Z,4.22
2022-11-10T06:00:27.748Z,4.20
2022-11-10T06:03:22.507Z,3.75
2022-11-10T06:06:12.527Z,4.47
2022-11-10T06:09:02.996Z,2.03
2022-11-10T06:11:52.927Z,3.08
2022-11-10T06:14:42.948Z,3.08
2022-11-10T06:17:32.624Z,3.53
2022-11-10T06:20:24.858Z,3.67
2022-11-10T06:23:15.741Z,3.83
2022-11-10T06:26:05.188Z,2.63
2022-11-10T06:28:54.680Z,3.28
2022-11-10T06:31:44.290Z,3.28
2022-11-10T06:34:34.435Z,3.17
2022-11-10T06:37:27.018Z,3.58
2022-11-10T06:40:17.295Z,7.00
2022-11-10T06:43:07.847Z,5.85
2022-11-10T06:45:57.581Z,6.45
2022-11-10T06:48:47.502Z,4.82
2022-11-10T06:51:38.142Z,4.97
2022-11-10T06:54:43.355Z,4.03
2022-11-10T06:57:34.082Z,3.80
2022-11-10T07:00:24.603Z,3.90
2022-11-10T07:03:20.464Z,4.28
2022-11-10T07:06:11.593Z,4.38
2022-11-10T07:09:01.711Z,4.30
2022-11-10T07:11:54.460Z,5.03
2022-11-10T07:14:44.400Z,26.15
2022-11-10T07:17:40.045Z,9.68
2022-11-10T07:20:30.250Z,7.90
2022-11-10T07:23:20.468Z,10.68
2022-11-10T07:26:09.841Z,6.63
2022-11-10T07:29:02.659Z,5.68
2022-11-10T07:31:52.296Z,7.40
2022-11-10T07:34:41.837Z,8.35
2022-11-10T07:37:31.096Z,6.55
2022-11-10T07:40:20.822Z,6.15
2022-11-10T07:43:10.678Z,6.55
2022-11-10T07:46:03.135Z,6.00
2022-11-10T07:48:52.741Z,6.00
2022-11-10T07:51:42.336Z,4.88
2022-11-10T07:54:31.933Z,5.65
2022-11-10T07:57:21.632Z,4.40
2022-11-10T08:00:13.058Z,4.15
2022-11-10T08:03:10.402Z,4.25
2022-11-10T08:06:00.259Z,3.97
2022-11-10T08:08:50.323Z,3.78
2022-11-10T08:11:41.084Z,4.45
2022-11-10T08:14:30.229Z,5.53
2022-11-10T08:17:20.195Z,5.75
2022-11-10T08:20:14.247Z,5.13
2022-11-10T08:23:05.510Z,5.53
2022-11-10T08:25:54.653Z,6.47
2022-11-10T08:28:44.539Z,5.30
2022-11-10T08:31:35.952Z,4.25
2022-11-10T08:34:25.710Z,4.25
2022-11-10T08:37:18.015Z,4.78
2022-11-10T08:40:09.168Z,4.68
2022-11-10T08:43:07.650Z,4.55
2022-11-10T08:45:59.263Z,5.03
2022-11-10T08:48:48.744Z,5.45
2022-11-10T08:51:39.391Z,5.55
2022-11-10T08:54:31.435Z,5.13
2022-11-10T08:57:20.788Z,4.38
2022-11-10T09:00:12.281Z,4.53
2022-11-10T09:03:08.460Z,4.65
2022-11-10T09:05:58.859Z,4.65
2022-11-10T09:08:48.501Z,3.58
2022-11-10T09:11:40.969Z,3.63
2022-11-10T09:14:30.962Z,4.63
2022-11-10T09:17:21.582Z,4.07
2022-11-10T09:20:13.105Z,3.53
2022-11-10T09:23:09.818Z,3.85
2022-11-10T09:26:00.318Z,3.83
2022-11-10T09:28:53.329Z,3.38
2022-11-10T09:31:43.234Z,2.92
2022-11-10T09:34:32.713Z,4.28
2022-11-10T09:37:22.256Z,3.20
2022-11-10T09:40:21.098Z,3.13
2022-11-10T09:43:20.669Z,3.00
2022-11-10T09:46:17.544Z,2.90
2022-11-10T09:49:16.687Z,3.35
2022-11-10T09:52:06.988Z,2.92
2022-11-10T09:55:01.289Z,2.65
2022-11-10T09:57:52.578Z,3.50
2022-11-10T10:00:43.485Z,3.67
2022-11-10T10:03:36.757Z,2.85
2022-11-10T10:06:33.992Z,3.33
2022-11-10T10:09:43.245Z,2.95
2022-11-10T10:12:58.066Z,2.35
2022-11-10T10:16:01.874Z,2.35
2022-11-10T10:19:00.240Z,3.20
2022-11-10T10:22:04.283Z,3.13
2022-11-10T10:24:56.408Z,3.67
2022-11-10T10:27:50.058Z,2.67
2022-11-10T10:30:39.436Z,2.80
2022-11-10T10:33:31.444Z,2.78
2022-11-10T10:36:27.764Z,2.22
2022-11-10T10:39:20.179Z,2.35
2022-11-10T10:42:19.224Z,2.30
2022-11-10T10:45:23.899Z,2.05
2022-11-10T10:48:30.867Z,2.30
2022-11-10T10:51:35.150Z,2.10
2022-11-10T10:54:29.981Z,2.28
2022-11-10T10:57:30.344Z,2.08
2022-11-10T11:00:24.180Z,2.03
2022-11-10T11:03:22.691Z,1.42
2022-11-10T11:06:25.687Z,1.75
2022-11-10T11:09:23.080Z,1.75
2022-11-10T11:12:15.246Z,2.17
2022-11-10T11:15:22.897Z,2.78
2022-11-10T11:18:18.068Z,1.70
2022-11-10T11:21:14.050Z,1.75
2022-11-10T11:24:13.984Z,1.50
2022-11-10T11:27:13.612Z,1.98
2022-11-10T11:30:10.405Z,1.95
2022-11-10T11:33:16.622Z,1.93
2022-11-10T11:36:17.608Z,1.45
2022-11-10T11:39:18.146Z,1.90
2022-11-10T11:42:20.838Z,1.50
2022-11-10T11:45:20.104Z,1.40
2022-11-10T11:48:33.430Z,1.98
2022-11-10T11:51:30.318Z,1.38
2022-11-10T11:54:31.227Z,1.85
2022-11-10T11:57:40.299Z,1.88
2022-11-10T12:00:32.824Z,1.42
2022-11-10T12:03:40.440Z,1.48
2022-11-10T12:06:43.689Z,1.70
2022-11-10T12:09:41.717Z,1.58
2022-11-10T12:12:53.063Z,1.88
2022-11-10T12:15:51.324Z,2.22
2022-11-10T12:18:49.922Z,1.50
2022-11-10T12:21:48.509Z,1.38
2022-11-10T12:24:54.356Z,1.52
2022-11-10T12:27:50.420Z,1.15
2022-11-10T12:30:41.614Z,1.65
2022-11-10T12:33:39.697Z,1.92
2022-11-10T12:36:32.515Z,1.35
2022-11-10T12:39:26.197Z,1.67
2022-11-10T12:42:21.224Z,1.58
2022-11-10T12:45:23.297Z,1.50
2022-11-10T12:48:15.104Z,1.35
2022-11-10T12:51:11.342Z,1.23
2022-11-10T12:54:01.019Z,1.70
2022-11-10T12:56:55.330Z,1.33
2022-11-10T12:59:51.748Z,1.10
2022-11-10T13:02:49.272Z,1.20
2022-11-10T13:05:42.221Z,1.10
2022-11-10T13:08:37.591Z,1.30
2022-11-10T13:11:33.919Z,1.05
2022-11-10T13:14:37.461Z,1.40
2022-11-10T13:17:56.622Z,1.85
2022-11-10T13:20:54.301Z,1.30
2022-11-10T13:24:13.246Z,1.63
2022-11-10T13:27:05.388Z,1.52
2022-11-10T13:29:59.107Z,1.25
2022-11-10T13:32:48.430Z,1.30
2022-11-10T13:35:59.648Z,1.75
2022-11-10T13:38:49.256Z,1.35
2022-11-10T13:41:49.520Z,1.80
2022-11-10T13:44:42.376Z,1.63
2022-11-10T13:47:49.538Z,1.40
2022-11-10T13:50:57.197Z,1.30
2022-11-10T13:54:02.996Z,1.35
2022-11-10T13:57:25.355Z,1.20
2022-11-10T14:00:29.859Z,1.23
2022-11-10T14:04:04.000Z,1.20
2022-11-10T14:06:55.871Z,0.88
2022-11-10T14:09:51.137Z,0.88
2022-11-10T14:12:49.378Z,1.13
2022-11-10T14:15:43.744Z,1.30
2022-11-10T14:18:42.818Z,1.20
2022-11-10T14:21:40.295Z,1.98
2022-11-10T14:24:33.898Z,1.13
2022-11-10T14:27:30.144Z,1.30
2022-11-10T14:30:29.200Z,1.42
2022-11-10T14:33:18.899Z,2.22
2022-11-10T14:36:10.838Z,1.33
2022-11-10T14:39:01.766Z,1.10
2022-11-10T14:41:52.526Z,1.52
2022-11-10T14:44:45.347Z,1.92
2022-11-10T14:47:36.109Z,1.73
2022-11-10T14:50:27.681Z,1.55
2022-11-10T14:53:22.992Z,2.22
2022-11-10T14:56:19.482Z,1.73
2022-11-10T14:59:14.000Z,1.70
2022-11-10T15:02:06.697Z,1.98
2022-11-10T15:04:57.666Z,1.58
2022-11-10T15:07:48.543Z,1.52
2022-11-10T15:10:49.571Z,1.30
2022-11-10T15:13:40.934Z,1.55
2022-11-10T15:16:32.788Z,1.50
2022-11-10T15:19:31.391Z,1.30
2022-11-10T15:22:23.917Z,1.83
2022-11-10T15:25:18.990Z,1.50
2022-11-10T15:28:19.224Z,1.80
2022-11-10T15:31:11.392Z,1.33
2022-11-10T15:34:02.265Z,2.08
2022-11-10T15:37:12.910Z,1.25
2022-11-10T15:40:32.878Z,1.60
2022-11-10T15:43:31.986Z,1.60
2022-11-10T15:46:23.776Z,1.38
2022-11-10T15:49:16.418Z,1.60
2022-11-10T15:52:14.837Z,1.50
2022-11-10T15:55:04.384Z,1.90
2022-11-10T15:57:54.088Z,1.20
2022-11-10T16:00:43.744Z,1.40
2022-11-10T16:03:34.374Z,1.13
2022-11-10T16:06:23.592Z,1.20
2022-11-10T16:09:16.907Z,1.60
2022-11-10T16:12:06.649Z,1.75
2022-11-10T16:14:57.635Z,1.20
2022-11-10T16:17:47.328Z,1.80
2022-11-10T16:20:36.805Z,1.55
2022-11-10T16:23:27.470Z,1.40
2022-11-10T16:26:22.699Z,1.65
2022-11-10T16:29:16.964Z,2.20
2022-11-10T16:32:07.363Z,1.58
2022-11-10T16:34:57.142Z,2.00
2022-11-10T16:37:46.695Z,4.35
2022-11-10T16:40:36.538Z,2.40
2022-11-10T16:43:30.222Z,2.10
2022-11-10T16:46:24.597Z,1.67
2022-11-10T16:49:26.602Z,1.45
2022-11-10T16:52:19.379Z,1.85
2022-11-10T16:55:09.951Z,2.03
2022-11-10T16:58:00.065Z,2.10
2022-11-10T17:00:52.608Z,2.30
2022-11-10T17:03:46.307Z,2.95
2022-11-10T17:06:35.524Z,2.42
2022-11-10T17:09:27.871Z,2.72
2022-11-10T17:12:17.848Z,3.70
2022-11-10T17:15:08.318Z,6.13
2022-11-10T17:18:10.210Z,5.35
2022-11-10T17:20:59.641Z,4.10
2022-11-10T17:23:49.073Z,3.38
2022-11-10T17:26:38.511Z,3.47
2022-11-10T17:29:30.267Z,3.70
2022-11-10T17:32:27.913Z,4.25
2022-11-10T17:35:24.513Z,2.55
2022-11-10T17:38:24.172Z,2.50
2022-11-10T17:41:19.018Z,2.15
2022-11-10T17:44:08.344Z,2.13
2022-11-10T17:46:57.921Z,2.95
2022-11-10T17:49:47.494Z,11.27
2022-11-10T17:52:40.522Z,11.80
2022-11-10T17:55:34.254Z,17.15
2022-11-10T17:58:24.602Z,7.88
2022-11-10T18:01:22.497Z,3.90
2022-11-10T18:07:05.949Z,3.55
2022-11-10T18:09:58.273Z,4.13
2022-11-10T18:12:47.940Z,4.60
2022-11-10T18:15:37.773Z,4.78
2022-11-10T18:18:28.419Z,4.45
2022-11-10T18:21:19.081Z,3.42
2022-11-10T18:24:09.391Z,3.63
2022-11-10T18:27:02.762Z,4.57
2022-11-10T18:29:52.793Z,4.38
2022-11-10T18:32:42.551Z,4.07
2022-11-10T18:35:32.708Z,3.95
2022-11-10T18:38:22.483Z,4.40
2022-11-10T18:41:25.462Z,5.05
2022-11-10T18:44:19.131Z,4.95
2022-11-10T18:47:10.131Z,5.60
2022-11-10T18:50:00.129Z,6.90
2022-11-10T18:52:50.480Z,10.00
2022-11-10T18:55:45.278Z,10.65
2022-11-10T18:58:35.783Z,11.35
2022-11-10T19:01:29.853Z,10.57
2022-11-10T19:04:19.688Z,11.55
2022-11-10T19:07:10.394Z,11.88
2022-11-10T19:10:00.292Z,14.63
2022-11-10T19:12:50.113Z,11.65
2022-11-10T19:15:44.125Z,26.65
2022-11-10T19:18:38.781Z,26.20
2022-11-10T19:21:30.065Z,29.48
2022-11-10T19:24:27.732Z,19.52
2022-11-10T19:30:09.917Z,21.38
2022-11-10T19:32:59.469Z,18.02
2022-11-10T19:35:53.383Z,12.43
2022-11-10T19:38:44.087Z,6.78
2022-11-10T19:41:35.107Z,6.32
2022-11-10T19:44:25.267Z,9.68
2022-11-10T19:47:14.618Z,14.43
2022-11-10T19:50:04.038Z,8.20
2022-11-10T19:52:56.726Z,25.30
2022-11-10T19:55:46.485Z,5.45
2022-11-10T19:58:39.231Z,5.78
2022-11-10T20:01:28.950Z,4.72
2022-11-10T20:04:18.382Z,7.00
2022-11-10T20:07:22.312Z,6.88
2022-11-10T20:10:15.659Z,9.73
2022-11-10T20:13:05.823Z,6.47
2022-11-10T20:15:56.074Z,3.65
2022-11-10T20:18:46.613Z,3.78
2022-11-10T20:21:36.644Z,3.05
2022-11-10T20:24:26.609Z,5.15
2022-11-10T20:27:18.856Z,3.83
2022-11-10T20:30:09.602Z,3.30
2022-11-10T20:32:59.388Z,4.30
2022-11-10T20:35:49.309Z,4.00
2022-11-10T20:38:39.139Z,8.40
2022-11-10T20:41:33.652Z,2.60
2022-11-10T20:44:26.562Z,3.20
2022-11-10T20:47:15.937Z,3.65
2022-11-10T20:50:10.133Z,4.35
2022-11-10T20:53:06.019Z,4.13
2022-11-10T20:56:02.288Z,4.00
2022-11-10T20:58:53.771Z,6.25
2022-11-10T21:01:46.295Z,5.93
2022-11-10T21:04:40.391Z,5.57
2022-11-10T21:07:32.418Z,4.75
2022-11-10T21:10:21.878Z,5.55
2022-11-10T21:13:11.674Z,4.47
2022-11-10T21:16:03.270Z,6.82
2022-11-10T21:18:58.869Z,6.93
2022-11-10T21:21:49.658Z,5.05
2022-11-10T21:24:39.965Z,3.97
2022-11-10T21:27:30.278Z,5.28
2022-11-10T21:30:23.228Z,6.80
2022-11-10T21:33:12.876Z,14.75
2022-11-10T21:36:08.975Z,6.28
2022-11-10T21:38:58.830Z,6.18
2022-11-10T21:41:48.965Z,5.13
2022-11-10T21:44:38.738Z,4.72
2022-11-10T21:47:28.287Z,5.60
2022-11-10T21:50:18.224Z,5.93
2022-11-10T21:53:12.871Z,5.10
2022-11-10T21:56:02.926Z,9.35
2022-11-10T21:58:52.207Z,5.05
2022-11-10T22:01:41.386Z,6.03
2022-11-10T22:04:31.700Z,4.25
2022-11-10T22:07:27.550Z,4.10
2022-11-10T22:10:32.320Z,3.80
2022-11-10T22:13:34.980Z,4.80
2022-11-10T22:16:39.431Z,3.92
2022-11-10T22:19:29.566Z,4.47
2022-11-10T22:22:18.777Z,4.40
2022-11-10T22:25:09.515Z,4.25
2022-11-10T22:28:02.209Z,4.72
2022-11-10T22:30:51.684Z,4.22
2022-11-10T22:33:43.259Z,4.25
2022-11-10T22:36:32.660Z,4.45
2022-11-10T22:39:22.155Z,5.03
2022-11-10T22:42:27.491Z,5.10
2022-11-10T22:45:20.333Z,4.38
2022-11-10T22:48:22.491Z,5.53
2022-11-10T22:51:11.829Z,4.35
2022-11-10T22:54:03.044Z,4.72
2022-11-10T22:56:53.462Z,5.00
2022-11-10T22:59:43.220Z,4.45
2022-11-10T23:02:36.288Z,4.15
2022-11-10T23:05:25.617Z,5.20
2022-11-10T23:08:15.183Z,5.35
2022-11-10T23:11:06.479Z,6.70
2022-11-10T23:13:56.632Z,5.00
2022-11-10T23:16:46.212Z,4.60
2022-11-10T23:19:38.830Z,4.95
2022-11-10T23:22:28.301Z,4.88
2022-11-10T23:25:18.297Z,5.10
2022-11-10T23:28:08.414Z,5.05
2022-11-10T23:30:58.264Z,6.15
2022-11-10T23:33:50.427Z,5.88
2022-11-10T23:36:43.034Z,5.32
2022-11-10T23:39:32.485Z,5.32
2022-11-10T23:42:22.395Z,5.95
2022-11-10T23:45:14.067Z,6.35
2022-11-10T23:48:06.831Z,6.07
2022-11-10T23:50:57.471Z,5.82
2022-11-10T23:53:50.316Z,6.28
2022-11-10T23:56:40.399Z,6.57
2022-11-10T23:59:29.823Z,7.35
